OIKQ  Dayrestan Airport

Add Bookmark

Iran

Status
Operational
Latitude Longitude
26° 45' 16" N 55° 54' 8" E
26.754601 55.902401
Local (DST + 5) UTC (GMT + 4)
Nov 28, 2014 10:10 Nov 28, 2014 06:40
Sunrise-Sunset Local UTC
Begin Civil Twilight 05:49 02:19
Sunrise 06:14 02:44
Sunset 04:54 13:24
End Civil Twilight 05:19 13:49

Current Weather

METAR Observed MVFR
OIKQ 280600Z 00000KT 8000 FEW030 SCT200 25/20 Q1015 Fri, Nov 28, 2014 @ 06:00 UTC
(40 Minutes ago)
Marginal Visual Flight Rules
Wind Visibility Clouds Conditions
Calm 8000 meters
  • Few at 3,000' AGL
  • Scattered at 20,000' AGL
  • No significant weather
Temperatures Readings Precipitation
Current Temp 25°C (77°F)
Dewpoint 20°C (68°F)
Humidity 74%
Altimeter 29.97"Hg
Sea Level Pressure 1015mb
Field Elevation 39.37'
None Recorded

Additional weather within a 92.6km radius of OIKQ

Map ICAO Location
OIKB 69.8km N (042°)

24 Hour Weather History

Loading
-

24 Hour Weather Graphs

Loading
-

CheckWX.com is intended as a tool to help pilots better visualize weather data. It is not intended as a substitute for an official weather briefing obtained from a Flight Service Station. CheckWX.com does not meet the FAA requirements for an official pre-flight weather briefing. Therefore, it's important that pilots still call and obtain an official FSS pre-flight weather briefing.